Time;durP1;ratioP1;P1;durP2;ratioP2;P2;SDS_P1;SDS_P2;PMS_P1;PMS_P2;Temp;Humidity;BMP_temperature;BMP_pressure;BME280_temperature;BME280_humidity;BME280_pressure;Samples;Min_cycle;Max_cycle;Signal;HPM_P1;HPM_P2
2022/03/09 00:00:46;;;;;;;14.47;12.60;;;5.80;62.20;;;;;;5024100;28;20770;-69
2022/03/09 00:03:12;;;;;;;16.23;11.80;;;6.20;63.50;;;;;;5032218;28;20170;-68
2022/03/09 00:05:38;;;;;;;21.53;13.17;;;6.40;63.90;;;;;;5032684;28;20190;-69
2022/03/09 00:08:03;;;;;;;15.90;13.23;;;6.30;63.50;;;;;;5032094;28;20172;-69
2022/03/09 00:10:29;;;;;;;14.93;11.60;;;6.30;63.40;;;;;;5031652;28;20213;-69
2022/03/09 00:12:55;;;;;;;17.33;11.87;;;6.50;63.30;;;;;;4995397;28;20757;-69
2022/03/09 00:15:22;;;;;;;19.80;14.60;;;6.30;63.50;;;;;;5030073;28;20500;-69
2022/03/09 00:17:48;;;;;;;20.02;14.90;;;6.30;64.30;;;;;;5024429;28;20520;-68
2022/03/09 00:20:14;;;;;;;18.33;14.20;;;6.20;64.90;;;;;;5011879;28;20314;-68
2022/03/09 00:22:39;;;;;;;20.80;16.30;;;6.20;65.60;;;;;;5024707;28;20190;-69
2022/03/09 00:25:05;;;;;;;20.63;16.10;;;6.20;65.20;;;;;;5030049;28;20246;-69
2022/03/09 00:27:31;;;;;;;17.23;14.45;;;6.10;65.00;;;;;;5013437;28;20623;-69
2022/03/09 00:29:57;;;;;;;19.93;15.70;;;6.10;65.40;;;;;;5031443;28;20182;-69
2022/03/09 00:32:23;;;;;;;18.80;14.85;;;6.00;65.70;;;;;;5031329;28;20649;-69
2022/03/09 00:34:48;;;;;;;19.17;16.43;;;6.00;65.80;;;;;;5031206;28;20187;-68
2022/03/09 00:37:15;;;;;;;21.10;17.60;;;5.90;65.70;;;;;;5023692;28;20187;-68
2022/03/09 00:39:40;;;;;;;20.15;16.13;;;5.90;65.70;;;;;;5018331;28;20215;-71
2022/03/09 00:42:06;;;;;;;18.47;14.93;;;5.90;65.20;;;;;;5028519;28;20737;-68
2022/03/09 00:44:32;;;;;;;20.73;15.02;;;5.90;64.80;;;;;;5028331;28;20332;-68
2022/03/09 00:46:58;;;;;;;16.83;12.70;;;6.00;64.50;;;;;;5031401;28;20729;-68
2022/03/09 00:49:24;;;;;;;14.67;12.50;;;6.00;63.80;;;;;;5030806;28;20215;-68
2022/03/09 00:51:49;;;;;;;16.30;13.63;;;6.00;64.30;;;;;;5030679;28;20274;-68
2022/03/09 00:54:15;;;;;;;21.37;16.03;;;6.00;65.00;;;;;;5031588;28;20199;-67
2022/03/09 00:56:41;;;;;;;17.97;14.20;;;5.90;65.60;;;;;;5013773;28;20179;-68
2022/03/09 00:59:07;;;;;;;16.13;14.07;;;5.90;66.30;;;;;;5014148;28;20713;-68
2022/03/09 01:01:33;;;;;;;23.42;15.73;;;5.80;66.10;;;;;;5030475;28;20217;-67
2022/03/09 01:03:58;;;;;;;16.30;13.73;;;5.80;66.10;;;;;;5030868;28;20179;-68
2022/03/09 01:06:24;;;;;;;15.97;13.10;;;5.80;66.00;;;;;;5030784;28;20191;-68
2022/03/09 01:08:50;;;;;;;16.27;13.43;;;5.80;66.10;;;;;;5030580;28;20954;-67
2022/03/09 01:11:15;;;;;;;13.93;12.57;;;5.80;65.80;;;;;;5031643;28;20183;-67
2022/03/09 01:13:41;;;;;;;15.57;11.40;;;5.80;64.30;;;;;;5034630;28;20603;-67
2022/03/09 01:16:07;;;;;;;14.45;9.82;;;5.90;63.00;;;;;;5035249;28;20262;-68
2022/03/09 01:18:33;;;;;;;14.07;10.73;;;6.00;61.10;;;;;;5034013;28;20269;-68
2022/03/09 01:20:59;;;;;;;13.33;10.00;;;5.80;60.00;;;;;;5034296;28;20663;-68
2022/03/09 01:23:24;;;;;;;13.73;11.53;;;6.10;59.80;;;;;;5035129;28;20611;-67
2022/03/09 01:25:51;;;;;;;29.13;14.17;;;6.20;59.80;;;;;;5015999;28;21009;-68
2022/03/09 01:28:18;;;;;;;13.95;12.05;;;6.20;60.50;;;;;;5034653;28;20271;-68
2022/03/09 01:30:44;;;;;;;14.70;11.90;;;6.10;61.40;;;;;;5000057;28;20279;-68
2022/03/09 01:33:09;;;;;;;13.77;12.37;;;6.10;61.70;;;;;;5016299;28;20516;-69
2022/03/09 01:35:35;;;;;;;16.33;11.63;;;6.10;62.80;;;;;;5033472;28;20636;-69
2022/03/09 01:38:01;;;;;;;14.23;12.43;;;5.90;61.80;;;;;;5033012;28;20182;-68
2022/03/09 01:40:27;;;;;;;12.70;10.90;;;6.00;62.30;;;;;;5027777;28;20710;-67
2022/03/09 01:42:53;;;;;;;14.40;12.93;;;6.00;62.30;;;;;;5018149;28;20203;-68
2022/03/09 01:45:20;;;;;;;16.30;11.30;;;6.00;62.10;;;;;;5018841;28;20191;-68
2022/03/09 01:47:47;;;;;;;14.75;11.57;;;5.90;62.70;;;;;;5033797;28;20420;-68
2022/03/09 01:50:13;;;;;;;13.25;11.95;;;5.90;62.90;;;;;;5033703;28;20679;-67
2022/03/09 01:52:41;;;;;;;19.93;14.63;;;5.90;63.80;;;;;;5033122;28;20212;-68
2022/03/09 01:55:07;;;;;;;15.95;12.77;;;6.00;63.50;;;;;;5034523;28;20414;-67
2022/03/09 01:57:33;;;;;;;15.88;13.20;;;5.80;63.30;;;;;;5022386;28;20175;-71
2022/03/09 02:00:00;;;;;;;14.93;10.87;;;6.00;63.40;;;;;;5016456;28;20214;-68
2022/03/09 02:02:26;;;;;;;14.20;11.20;;;5.90;62.30;;;;;;5034165;28;20985;-67
2022/03/09 02:04:52;;;;;;;13.10;10.88;;;5.60;60.30;;;;;;5032807;28;20443;-68
2022/03/09 02:07:18;;;;;;;11.33;9.97;;;6.00;59.60;;;;;;5027505;28;20527;-68
2022/03/09 02:09:46;;;;;;;12.63;10.57;;;6.10;58.90;;;;;;5013468;28;20382;-68
2022/03/09 02:12:15;;;;;;;20.65;17.27;;;6.20;58.70;;;;;;5033405;28;20426;-67
2022/03/09 02:14:50;;;;;;;16.53;14.10;;;6.20;59.00;;;;;;5014553;28;20179;-68
2022/03/09 02:17:25;;;;;;;15.80;12.93;;;6.20;59.20;;;;;;5030262;28;20427;-68
2022/03/09 02:19:51;;;;;;;15.73;11.77;;;6.20;61.60;;;;;;5031406;28;20429;-68
2022/03/09 02:22:19;;;;;;;16.73;11.33;;;6.10;61.40;;;;;;5032923;28;20509;-68
2022/03/09 02:24:51;;;;;;;13.93;11.90;;;6.10;60.80;;;;;;5032920;28;20414;-68
2022/03/09 02:27:20;;;;;;;13.70;12.30;;;5.90;60.30;;;;;;5033786;28;20159;-68
2022/03/09 02:29:47;;;;;;;15.85;10.48;;;6.10;60.20;;;;;;5033225;28;20516;-68
2022/03/09 02:32:12;;;;;;;10.53;9.47;;;5.60;59.70;;;;;;5015475;28;20179;-67
2022/03/09 02:34:38;;;;;;;12.50;9.23;;;5.70;59.40;;;;;;5032802;28;20446;-68
2022/03/09 02:37:04;;;;;;;10.93;7.80;;;6.10;59.30;;;;;;5031914;28;20183;-68
2022/03/09 02:39:30;;;;;;;9.17;7.63;;;6.00;58.70;;;;;;5015153;28;20234;-67
2022/03/09 02:41:56;;;;;;;13.15;8.45;;;6.00;58.50;;;;;;5014939;28;20310;-67
2022/03/09 02:44:22;;;;;;;9.80;8.90;;;6.20;58.70;;;;;;5033110;28;20275;-67
2022/03/09 02:46:47;;;;;;;10.37;7.17;;;6.00;59.30;;;;;;5029048;28;20182;-67
2022/03/09 02:49:13;;;;;;;8.33;7.50;;;5.90;58.80;;;;;;5034454;28;20504;-68
2022/03/09 02:51:39;;;;;;;9.40;7.50;;;6.00;58.50;;;;;;5034117;28;20678;-68
2022/03/09 02:54:04;;;;;;;8.33;7.00;;;6.00;58.20;;;;;;5032736;28;20206;-68
2022/03/09 02:56:31;;;;;;;10.70;7.87;;;5.50;57.50;;;;;;5033464;28;20409;-68
2022/03/09 02:58:57;;;;;;;9.38;7.65;;;5.90;58.40;;;;;;5019407;28;20194;-68
2022/03/09 03:01:23;;;;;;;10.80;8.53;;;5.90;59.30;;;;;;5017140;28;20214;-68
2022/03/09 03:03:49;;;;;;;11.43;9.30;;;5.90;59.80;;;;;;5032563;28;20186;-68
2022/03/09 03:06:15;;;;;;;12.10;10.60;;;5.60;59.60;;;;;;5032670;28;20433;-67
2022/03/09 03:08:40;;;;;;;14.65;13.05;;;5.80;59.70;;;;;;5032021;28;20257;-68
2022/03/09 03:11:10;;;;;;;14.77;11.97;;;5.30;58.10;;;;;;5033083;28;20707;-67
2022/03/09 03:13:38;;;;;;;11.38;9.93;;;5.80;57.90;;;;;;5031896;28;20420;-76
2022/03/09 03:16:05;;;;;;;9.52;8.30;;;5.90;57.30;;;;;;5032413;28;20174;-68
2022/03/09 03:18:32;;;;;;;7.38;6.45;;;6.00;57.20;;;;;;5033074;28;20176;-68
2022/03/09 03:20:57;;;;;;;7.17;6.57;;;6.00;56.30;;;;;;5020975;28;20226;-68
2022/03/09 03:23:29;;;;;;;9.00;6.83;;;6.30;56.50;;;;;;5021233;28;20422;-68
2022/03/09 03:25:55;;;;;;;7.63;6.82;;;6.10;56.00;;;;;;5019547;28;21007;-68
2022/03/09 03:28:22;;;;;;;10.90;8.60;;;6.10;56.20;;;;;;5020657;28;20255;-68
2022/03/09 03:30:48;;;;;;;8.40;7.60;;;6.10;56.60;;;;;;5022049;28;20265;-68
2022/03/09 03:33:15;;;;;;;10.43;7.10;;;6.10;56.80;;;;;;5021905;28;20286;-67
2022/03/09 03:35:41;;;;;;;8.47;7.13;;;6.10;57.20;;;;;;5019339;28;20414;-68
2022/03/09 03:38:08;;;;;;;8.05;7.03;;;5.80;57.10;;;;;;5020092;28;20426;-68
2022/03/09 03:40:34;;;;;;;9.82;7.53;;;6.10;57.50;;;;;;5020612;28;20218;-75
2022/03/09 03:43:00;;;;;;;10.90;8.18;;;6.20;57.40;;;;;;5004249;28;20218;-68
2022/03/09 03:45:25;;;;;;;9.57;8.57;;;6.00;57.50;;;;;;5021146;28;20207;-68
2022/03/09 03:47:52;;;;;;;13.73;8.00;;;5.90;57.30;;;;;;5019517;28;20175;-68
2022/03/09 03:50:18;;;;;;;14.07;8.25;;;5.50;56.50;;;;;;5020381;28;20614;-68
2022/03/09 03:52:44;;;;;;;8.05;7.25;;;6.00;57.80;;;;;;5020226;28;20956;-70
2022/03/09 03:55:10;;;;;;;8.23;7.10;;;5.90;56.30;;;;;;5021242;28;20267;-68
2022/03/09 03:57:36;;;;;;;8.23;7.00;;;6.00;55.80;;;;;;5019496;28;20194;-76
2022/03/09 04:00:03;;;;;;;7.30;6.60;;;6.20;55.90;;;;;;5021416;28;20425;-67
2022/03/09 04:02:29;;;;;;;7.43;6.50;;;6.00;55.60;;;;;;5003371;28;20184;-68
2022/03/09 04:04:54;;;;;;;7.73;6.70;;;6.10;55.90;;;;;;5021021;28;20408;-69
2022/03/09 04:07:20;;;;;;;7.17;6.47;;;6.20;55.30;;;;;;5002477;28;20283;-68
2022/03/09 04:09:46;;;;;;;9.53;6.73;;;6.20;54.50;;;;;;5020060;28;20186;-68
2022/03/09 04:12:12;;;;;;;8.00;6.50;;;5.70;53.50;;;;;;5020374;28;20178;-68
2022/03/09 04:14:37;;;;;;;9.27;7.63;;;6.20;54.70;;;;;;5001357;28;20533;-75
2022/03/09 04:17:03;;;;;;;7.43;6.13;;;6.20;55.40;;;;;;5021197;28;20403;-68
2022/03/09 04:19:29;;;;;;;9.23;7.30;;;6.10;56.50;;;;;;5019960;28;20172;-68
2022/03/09 04:21:55;;;;;;;8.13;7.33;;;6.00;56.90;;;;;;5003234;28;20429;-69
2022/03/09 04:24:21;;;;;;;9.50;8.13;;;6.00;57.90;;;;;;5006609;28;20176;-67
2022/03/09 04:26:47;;;;;;;11.93;9.33;;;5.80;58.40;;;;;;5021151;28;20819;-67
2022/03/09 04:29:13;;;;;;;12.90;9.23;;;5.80;58.30;;;;;;5021173;28;20400;-68
2022/03/09 04:31:39;;;;;;;12.27;10.63;;;5.80;57.90;;;;;;5018782;28;20244;-69
2022/03/09 04:34:04;;;;;;;14.17;9.60;;;5.60;58.20;;;;;;4989511;28;20764;-71
2022/03/09 04:36:30;;;;;;;12.80;10.37;;;5.20;58.30;;;;;;5021160;28;20411;-68
2022/03/09 04:38:56;;;;;;;14.40;10.20;;;5.50;60.40;;;;;;5018265;28;20425;-68
2022/03/09 04:41:22;;;;;;;14.77;10.73;;;5.60;60.80;;;;;;5021982;28;20210;-67
2022/03/09 04:43:48;;;;;;;13.05;10.30;;;5.40;61.40;;;;;;5020227;28;20179;-68
2022/03/09 04:46:14;;;;;;;14.90;9.90;;;5.30;61.30;;;;;;5021544;28;20591;-67
2022/03/09 04:48:40;;;;;;;12.48;10.32;;;5.30;61.50;;;;;;5022317;28;20885;-68
2022/03/09 04:51:06;;;;;;;12.63;10.33;;;5.30;62.00;;;;;;5025809;28;20190;-69
2022/03/09 04:53:32;;;;;;;11.80;10.47;;;5.30;61.90;;;;;;5024293;28;20186;-68
2022/03/09 04:55:58;;;;;;;14.55;12.13;;;5.40;61.90;;;;;;5024557;28;20237;-68
2022/03/09 04:58:24;;;;;;;14.30;12.77;;;5.30;62.00;;;;;;5023936;28;20175;-67
2022/03/09 05:00:50;;;;;;;17.15;14.40;;;5.30;62.60;;;;;;5023259;28;20514;-68
2022/03/09 05:03:16;;;;;;;14.13;12.02;;;4.80;62.10;;;;;;5025197;28;20187;-67
2022/03/09 05:05:42;;;;;;;15.43;13.30;;;5.20;63.00;;;;;;5022421;28;20658;-67
2022/03/09 05:08:09;;;;;;;16.70;13.17;;;5.20;63.00;;;;;;5024136;28;20286;-68
2022/03/09 05:10:35;;;;;;;21.67;13.93;;;4.80;62.10;;;;;;5023409;28;20190;-76
2022/03/09 05:13:02;;;;;;;13.68;11.68;;;5.20;62.30;;;;;;5032921;28;20185;-68
2022/03/09 05:15:28;;;;;;;14.30;11.05;;;5.20;62.40;;;;;;5023975;28;20171;-69
2022/03/09 05:17:53;;;;;;;14.90;11.23;;;5.20;61.20;;;;;;5008752;28;20186;-67
2022/03/09 05:20:22;;;;;;;16.27;13.20;;;5.30;60.80;;;;;;5007594;28;20439;-68
2022/03/09 05:22:50;;;;;;;13.35;10.40;;;5.40;60.70;;;;;;5022544;28;20625;-67
2022/03/09 05:25:16;;;;;;;11.40;9.10;;;5.30;59.90;;;;;;5023065;28;20262;-69
2022/03/09 05:27:42;;;;;;;18.73;12.55;;;5.40;60.80;;;;;;5023891;28;20604;-68
2022/03/09 05:30:12;;;;;;;13.10;9.75;;;5.40;59.90;;;;;;5025485;28;20562;-68
2022/03/09 05:32:39;;;;;;;15.13;9.30;;;5.30;59.80;;;;;;5004461;28;20274;-76
2022/03/09 05:35:05;;;;;;;14.02;12.57;;;5.40;59.80;;;;;;5007691;28;20179;-70
2022/03/09 05:37:42;;;;;;;16.20;9.13;;;5.40;59.60;;;;;;5023811;28;20177;-68
2022/03/09 05:40:09;;;;;;;13.35;9.65;;;5.00;59.00;;;;;;5025234;28;20198;-68
2022/03/09 05:42:35;;;;;;;13.38;10.48;;;5.50;59.30;;;;;;4991217;28;20193;-76
2022/03/09 05:45:01;;;;;;;10.82;9.52;;;5.40;59.60;;;;;;5024980;28;20184;-67
2022/03/09 05:47:27;;;;;;;12.57;10.70;;;5.40;59.60;;;;;;5027734;28;20653;-68
2022/03/09 05:49:52;;;;;;;12.07;10.40;;;5.40;59.50;;;;;;5024965;28;20428;-67
2022/03/09 05:52:19;;;;;;;17.50;11.93;;;5.50;59.70;;;;;;5024101;28;20183;-68
2022/03/09 05:54:45;;;;;;;15.57;13.27;;;5.40;59.50;;;;;;5024310;28;20175;-69
2022/03/09 05:57:18;;;;;;;16.30;13.40;;;5.40;58.60;;;;;;5025106;28;20194;-68
2022/03/09 05:59:44;;;;;;;18.33;11.80;;;5.40;59.50;;;;;;5023736;28;20241;-68
2022/03/09 06:02:10;;;;;;;16.03;11.57;;;5.30;59.10;;;;;;5024039;28;20618;-68
2022/03/09 06:04:36;;;;;;;17.40;11.10;;;5.40;60.00;;;;;;5023002;28;20182;-75
2022/03/09 06:07:02;;;;;;;14.77;11.33;;;5.30;60.80;;;;;;5024073;28;20185;-68
2022/03/09 06:09:28;;;;;;;10.38;9.10;;;5.30;59.90;;;;;;5023848;28;20191;-68
2022/03/09 06:11:54;;;;;;;14.20;12.77;;;5.30;59.70;;;;;;5024387;28;20229;-68
2022/03/09 06:14:20;;;;;;;11.93;10.33;;;5.30;60.00;;;;;;5006881;28;20175;-67
2022/03/09 06:16:47;;;;;;;14.47;9.90;;;5.30;60.30;;;;;;5023657;28;20174;-71
2022/03/09 06:19:14;;;;;;;13.77;11.27;;;5.30;59.90;;;;;;5023942;28;20203;-68
2022/03/09 06:21:40;;;;;;;15.73;12.55;;;5.50;60.60;;;;;;5023202;28;20555;-68
2022/03/09 06:24:06;;;;;;;12.30;10.80;;;5.50;60.30;;;;;;5023249;28;20182;-70
2022/03/09 06:26:31;;;;;;;13.43;8.77;;;5.20;60.90;;;;;;5028118;28;20413;-68
2022/03/09 06:28:57;;;;;;;17.10;12.23;;;5.30;61.40;;;;;;5024116;28;20250;-68
2022/03/09 06:31:23;;;;;;;13.25;10.93;;;5.30;62.50;;;;;;5023545;28;20340;-68
2022/03/09 06:33:49;;;;;;;16.23;10.93;;;4.90;61.90;;;;;;5025273;28;20261;-68
2022/03/09 06:36:16;;;;;;;15.03;10.10;;;5.30;64.10;;;;;;5004300;28;20231;-70
2022/03/09 06:38:41;;;;;;;17.60;12.40;;;5.30;64.00;;;;;;5005197;28;20833;-67
2022/03/09 06:41:07;;;;;;;17.60;11.10;;;4.80;63.80;;;;;;5010128;28;20477;-68
2022/03/09 06:43:33;;;;;;;15.60;10.87;;;5.30;65.30;;;;;;5022872;28;20178;-71
2022/03/09 06:45:59;;;;;;;19.98;11.32;;;5.20;65.80;;;;;;5026661;28;20264;-68
2022/03/09 06:48:25;;;;;;;17.47;11.80;;;4.80;66.10;;;;;;5023742;28;20220;-69
2022/03/09 06:50:51;;;;;;;16.40;10.00;;;5.30;67.20;;;;;;5028189;28;20449;-68
2022/03/09 06:53:17;;;;;;;16.40;10.70;;;4.90;67.20;;;;;;5027559;28;20462;-68
2022/03/09 06:55:43;;;;;;;15.00;11.00;;;5.20;67.90;;;;;;5002847;28;20663;-68
2022/03/09 06:58:08;;;;;;;17.40;11.17;;;5.20;68.20;;;;;;5023228;28;20178;-68
2022/03/09 07:00:36;;;;;;;19.90;13.97;;;5.30;67.50;;;;;;5022986;28;20449;-67
2022/03/09 07:03:03;;;;;;;20.42;13.05;;;5.40;66.60;;;;;;5026711;28;20261;-67
2022/03/09 07:05:29;;;;;;;19.48;13.52;;;5.20;68.10;;;;;;5026259;28;20224;-70
2022/03/09 07:07:54;;;;;;;25.27;12.70;;;4.90;67.80;;;;;;5004042;28;20397;-67
2022/03/09 07:10:20;;;;;;;17.40;11.00;;;5.40;68.60;;;;;;5024827;28;20209;-68
2022/03/09 07:12:46;;;;;;;17.33;11.80;;;5.40;69.10;;;;;;5025413;28;20233;-75
2022/03/09 07:15:13;;;;;;;20.90;12.10;;;5.40;68.90;;;;;;5026755;28;20190;-70
2022/03/09 07:17:39;;;;;;;24.88;14.25;;;5.70;68.80;;;;;;5024641;28;20418;-73
2022/03/09 07:20:06;;;;;;;21.93;12.40;;;5.50;68.00;;;;;;5023635;28;20277;-69
2022/03/09 07:22:32;;;;;;;18.98;12.20;;;5.60;67.80;;;;;;5024026;28;20891;-68
2022/03/09 07:24:58;;;;;;;16.65;11.68;;;5.70;67.10;;;;;;5023134;28;20187;-69
2022/03/09 07:27:24;;;;;;;19.23;12.23;;;5.40;66.10;;;;;;5020859;28;20183;-69
2022/03/09 07:29:49;;;;;;;15.53;11.90;;;5.70;66.30;;;;;;5021309;28;20184;-68
2022/03/09 07:32:15;;;;;;;20.43;13.27;;;5.80;67.30;;;;;;5021716;28;20179;-70
2022/03/09 07:34:42;;;;;;;22.90;13.67;;;5.90;68.20;;;;;;5025533;28;20178;-68
2022/03/09 07:37:08;;;;;;;18.67;14.00;;;6.00;68.60;;;;;;5003385;28;20395;-68
2022/03/09 07:39:35;;;;;;;17.50;11.43;;;5.80;67.60;;;;;;5022395;28;20185;-68
2022/03/09 07:42:01;;;;;;;13.68;10.20;;;6.20;62.50;;;;;;5020393;28;20180;-68
2022/03/09 07:44:27;;;;;;;18.17;12.03;;;6.40;61.80;;;;;;5025383;28;20180;-68
2022/03/09 07:46:53;;;;;;;17.17;11.80;;;6.60;61.00;;;;;;5020053;28;20389;-68
2022/03/09 07:49:20;;;;;;;13.27;9.67;;;6.70;61.00;;;;;;5019044;28;20438;-67
2022/03/09 07:51:46;;;;;;;11.83;8.50;;;6.80;59.80;;;;;;5020530;28;20830;-70
2022/03/09 07:54:12;;;;;;;11.60;9.67;;;6.90;57.50;;;;;;5022367;28;20497;-68
2022/03/09 07:56:39;;;;;;;14.40;10.00;;;7.10;56.50;;;;;;5026178;28;20423;-80
2022/03/09 07:59:06;;;;;;;17.73;11.43;;;7.70;94.80;;;;;;5022206;28;20391;-72
2022/03/09 08:01:32;;;;;;;17.80;11.23;;;8.40;99.70;;;;;;5019191;28;20543;-71
2022/03/09 08:03:57;;;;;;;20.30;12.40;;;8.90;91.70;;;;;;5003193;28;20945;-72
2022/03/09 08:06:23;;;;;;;13.83;10.67;;;9.50;93.30;;;;;;5022333;28;20185;-71
2022/03/09 08:08:49;;;;;;;18.57;13.63;;;9.90;90.60;;;;;;5019534;28;20624;-71
2022/03/09 08:11:15;;;;;;;19.03;12.87;;;10.50;88.10;;;;;;5003658;28;20189;-71
2022/03/09 08:13:40;;;;;;;12.43;10.90;;;10.80;65.60;;;;;;5000893;28;20187;-72
2022/03/09 08:16:07;;;;;;;12.43;11.23;;;11.00;72.10;;;;;;5021670;28;20969;-74
2022/03/09 08:18:33;;;;;;;16.90;12.10;;;11.30;74.20;;;;;;5020603;28;20174;-71
2022/03/09 08:20:59;;;;;;;20.77;10.90;;;11.70;70.90;;;;;;5003261;28;20462;-71
2022/03/09 08:23:25;;;;;;;12.03;10.70;;;11.90;72.40;;;;;;4987922;28;20413;-71
2022/03/09 08:25:51;;;;;;;12.67;10.27;;;12.20;66.20;;;;;;5001302;28;20472;-71
2022/03/09 08:28:17;;;;;;;10.57;9.57;;;12.40;64.50;;;;;;5020775;28;20179;-72
2022/03/09 08:30:44;;;;;;;14.30;9.50;;;12.60;58.10;;;;;;5021564;28;20978;-72
2022/03/09 08:33:09;;;;;;;9.33;8.30;;;12.70;57.80;;;;;;5022667;28;20460;-71
2022/03/09 08:35:35;;;;;;;8.57;7.77;;;12.60;52.40;;;;;;5004532;28;20421;-73
2022/03/09 08:38:01;;;;;;;9.60;7.80;;;12.70;51.90;;;;;;5021110;28;20259;-72
2022/03/09 08:40:27;;;;;;;9.40;7.97;;;12.60;50.50;;;;;;4988557;28;20245;-75
2022/03/09 08:42:52;;;;;;;8.37;7.40;;;12.60;51.00;;;;;;5019596;28;20189;-71
2022/03/09 08:45:18;;;;;;;8.03;7.17;;;12.30;48.30;;;;;;5027826;28;20202;-81
2022/03/09 08:47:44;;;;;;;7.93;7.13;;;12.20;48.00;;;;;;5007427;28;20229;-71
2022/03/09 08:50:10;;;;;;;7.87;7.23;;;12.10;48.10;;;;;;5022792;28;20306;-70
2022/03/09 08:52:36;;;;;;;7.57;6.93;;;12.10;49.10;;;;;;5006699;28;20652;-67
2022/03/09 08:55:03;;;;;;;8.37;7.47;;;12.10;48.40;;;;;;5024317;28;20469;-68
2022/03/09 08:57:29;;;;;;;9.33;7.33;;;12.10;44.70;;;;;;5020172;28;20419;-68
2022/03/09 08:59:57;;;;;;;8.20;7.40;;;11.90;44.20;;;;;;5019111;28;20456;-68
2022/03/09 09:02:23;;;;;;;9.40;7.70;;;11.80;44.10;;;;;;5023324;28;20424;-67
2022/03/09 09:04:49;;;;;;;9.60;8.63;;;11.60;44.10;;;;;;5020679;28;20454;-67
2022/03/09 09:07:15;;;;;;;8.43;7.30;;;11.20;43.30;;;;;;5021134;28;20454;-68
2022/03/09 09:09:41;;;;;;;9.10;8.20;;;11.10;44.40;;;;;;5020190;28;21123;-74
2022/03/09 09:12:06;;;;;;;9.60;8.60;;;10.90;44.70;;;;;;5019621;28;20178;-71
2022/03/09 09:14:32;;;;;;;9.33;8.40;;;10.90;44.70;;;;;;5020155;28;20175;-68
2022/03/09 09:16:58;;;;;;;9.40;7.87;;;11.00;46.20;;;;;;5020165;28;20218;-68
2022/03/09 09:19:24;;;;;;;8.63;6.83;;;11.00;45.60;;;;;;5019449;28;20189;-68
2022/03/09 09:21:49;;;;;;;8.13;7.40;;;11.10;44.30;;;;;;5019793;28;20209;-68
2022/03/09 09:24:15;;;;;;;7.60;6.60;;;11.10;44.40;;;;;;5020739;28;20402;-68
2022/03/09 09:26:41;;;;;;;7.93;6.83;;;11.30;44.90;;;;;;5018782;28;20654;-70
2022/03/09 09:29:07;;;;;;;9.60;7.40;;;11.50;44.50;;;;;;5020934;28;20179;-71
2022/03/09 09:31:33;;;;;;;7.07;6.37;;;11.60;45.10;;;;;;5020208;28;20685;-68
2022/03/09 09:33:59;;;;;;;7.80;7.10;;;11.80;45.30;;;;;;5022369;28;20769;-68
2022/03/09 09:36:25;;;;;;;7.87;7.17;;;12.10;45.50;;;;;;5024526;28;20402;-68
2022/03/09 09:38:50;;;;;;;8.33;7.43;;;12.40;45.40;;;;;;5022521;28;20638;-68
2022/03/09 09:41:19;;;;;;;8.43;7.57;;;12.70;44.10;;;;;;5023411;28;20468;-68
2022/03/09 09:43:45;;;;;;;8.77;7.57;;;13.00;43.10;;;;;;5006100;28;20687;-68
2022/03/09 09:46:12;;;;;;;8.37;7.47;;;13.20;42.40;;;;;;5023133;28;20409;-68
2022/03/09 09:48:38;;;;;;;7.80;7.10;;;13.50;42.10;;;;;;5022449;28;20430;-75
2022/03/09 09:51:05;;;;;;;9.83;8.70;;;13.80;41.50;;;;;;5024095;28;20440;-68
2022/03/09 09:53:33;;;;;;;8.70;7.90;;;13.90;41.00;;;;;;5022757;28;20779;-68
2022/03/09 09:56:00;;;;;;;8.93;8.13;;;14.10;39.90;;;;;;5021740;28;20487;-68
2022/03/09 09:58:28;;;;;;;8.50;7.70;;;14.20;39.10;;;;;;5024345;28;20763;-69
2022/03/09 10:00:54;;;;;;;9.70;7.47;;;14.30;39.60;;;;;;5022429;28;20457;-68
2022/03/09 10:03:20;;;;;;;8.40;7.47;;;14.60;40.30;;;;;;5022270;28;20531;-68
2022/03/09 10:05:46;;;;;;;8.00;7.13;;;14.70;38.30;;;;;;4989761;28;20484;-68
2022/03/09 10:08:14;;;;;;;7.73;7.03;;;15.00;40.20;;;;;;5023048;28;20255;-68
2022/03/09 10:10:53;;;;;;;7.73;7.03;;;15.40;39.10;;;;;;5021446;28;20274;-75
2022/03/09 10:13:38;;;;;;;9.10;8.30;;;15.20;36.90;;;;;;5023768;28;20412;-69
2022/03/09 10:16:12;;;;;;;8.60;7.80;;;15.50;37.90;;;;;;5006032;28;20413;-68
2022/03/09 10:18:38;;;;;;;9.20;7.47;;;15.80;37.50;;;;;;5023254;28;20556;-75
2022/03/09 10:21:14;;;;;;;8.90;8.20;;;15.70;36.30;;;;;;5003938;28;21006;-68
2022/03/09 10:24:06;;;;;;;8.17;7.37;;;15.90;35.80;;;;;;5021365;28;20418;-76
2022/03/09 10:26:34;;;;;;;7.80;7.07;;;15.70;35.10;;;;;;5022203;28;20898;-68
2022/03/09 10:29:05;;;;;;;8.53;7.83;;;15.90;35.20;;;;;;5021318;28;20606;-68
2022/03/09 10:31:35;;;;;;;8.47;7.80;;;16.10;35.60;;;;;;5022096;28;20406;-68
2022/03/09 10:34:19;;;;;;;8.60;7.70;;;16.30;36.00;;;;;;5021113;28;21380;-68
2022/03/09 10:37:00;;;;;;;8.80;8.10;;;16.50;34.80;;;;;;5023039;28;20398;-68
2022/03/09 10:39:32;;;;;;;9.20;8.30;;;16.70;33.90;;;;;;5023626;28;20761;-68
2022/03/09 10:41:58;;;;;;;8.73;7.93;;;16.90;35.50;;;;;;5004422;28;21317;-72
2022/03/09 10:44:47;;;;;;;8.70;7.90;;;17.30;35.60;;;;;;5021455;28;20402;-69
2022/03/09 10:47:28;;;;;;;8.13;7.33;;;17.70;36.50;;;;;;5022003;28;20450;-68
2022/03/09 10:50:17;;;;;;;8.70;7.90;;;17.90;33.60;;;;;;5021618;28;20473;-68
2022/03/09 10:52:52;;;;;;;9.23;8.23;;;18.10;33.70;;;;;;5022253;28;20471;-68
2022/03/09 10:55:35;;;;;;;9.17;8.27;;;18.00;31.60;;;;;;5022776;28;20491;-69
2022/03/09 10:58:13;;;;;;;10.80;9.80;;;18.10;33.40;;;;;;5022906;28;20446;-69
2022/03/09 11:00:47;;;;;;;8.50;7.60;;;18.40;33.10;;;;;;5020835;28;20492;-75
2022/03/09 11:03:23;;;;;;;9.77;7.53;;;18.50;30.90;;;;;;5021639;28;20456;-68
2022/03/09 11:05:54;;;;;;;8.20;7.60;;;18.50;30.80;;;;;;5020881;28;20413;-68
2022/03/09 11:08:37;;;;;;;9.40;8.60;;;18.70;32.70;;;;;;5023282;28;20726;-68
2022/03/09 11:11:04;;;;;;;8.43;7.67;;;19.00;31.80;;;;;;5021985;28;21024;-68
2022/03/09 11:13:33;;;;;;;8.73;7.83;;;18.50;30.60;;;;;;5021954;28;20420;-69
2022/03/09 11:16:00;;;;;;;8.43;7.73;;;18.40;31.60;;;;;;5020178;28;20449;-68
2022/03/09 11:18:28;;;;;;;9.67;8.30;;;18.60;31.90;;;;;;5022683;28;20413;-69
2022/03/09 11:21:03;;;;;;;9.30;8.43;;;18.70;31.50;;;;;;5021117;28;20453;-69
2022/03/09 11:23:30;;;;;;;8.63;7.83;;;18.90;30.80;;;;;;5003440;28;20420;-67
2022/03/09 11:26:10;;;;;;;8.87;8.07;;;19.00;30.80;;;;;;5004207;28;20441;-67
2022/03/09 11:28:38;;;;;;;8.33;7.53;;;19.00;30.90;;;;;;5022532;28;20413;-69
2022/03/09 11:31:08;;;;;;;8.70;7.87;;;19.10;31.30;;;;;;5021521;28;20425;-67
2022/03/09 11:33:39;;;;;;;8.30;7.50;;;19.10;30.00;;;;;;5002992;28;20441;-67
2022/03/09 11:36:26;;;;;;;8.93;8.00;;;19.30;32.60;;;;;;5021029;28;20417;-67
2022/03/09 11:39:04;;;;;;;9.00;8.20;;;19.60;32.30;;;;;;5021714;28;20452;-69
2022/03/09 11:41:37;;;;;;;8.67;7.87;;;19.90;32.10;;;;;;5022398;28;20458;-71
2022/03/09 11:44:21;;;;;;;8.23;7.53;;;20.10;30.50;;;;;;5020619;28;20403;-68
2022/03/09 11:47:04;;;;;;;8.90;8.10;;;20.40;30.50;;;;;;5021245;28;20410;-68
2022/03/09 11:49:36;;;;;;;9.10;8.30;;;20.40;29.00;;;;;;5020016;28;20556;-69
2022/03/09 11:52:20;;;;;;;8.40;7.70;;;20.30;30.20;;;;;;5020739;28;20437;-68
2022/03/09 11:54:53;;;;;;;9.00;8.20;;;20.40;30.50;;;;;;5021435;28;20409;-68
2022/03/09 11:57:19;;;;;;;9.57;8.77;;;20.50;31.10;;;;;;5021458;28;20949;-68
2022/03/09 12:00:08;;;;;;;9.83;8.93;;;20.40;29.00;;;;;;5019360;28;20402;-68
2022/03/09 12:02:41;;;;;;;9.47;8.63;;;20.30;31.70;;;;;;5003205;28;20430;-67
2022/03/09 12:05:27;;;;;;;8.63;7.90;;;20.30;29.80;;;;;;5020217;28;20662;-68
2022/03/09 12:08:01;;;;;;;8.97;8.23;;;20.30;28.70;;;;;;5019899;28;20410;-68
2022/03/09 12:10:49;;;;;;;7.53;6.80;;;19.90;29.20;;;;;;5002580;28;20407;-68
2022/03/09 12:13:47;;;;;;;10.10;9.10;;;20.00;29.10;;;;;;5019453;28;20751;-68
2022/03/09 12:16:22;;;;;;;8.37;7.67;;;20.10;28.10;;;;;;5008448;28;20457;-68
2022/03/09 12:19:14;;;;;;;9.30;8.50;;;20.10;28.90;;;;;;5001565;28;20843;-69
2022/03/09 12:21:50;;;;;;;8.70;8.00;;;19.60;29.60;;;;;;5017644;28;20523;-76
2022/03/09 12:24:20;;;;;;;8.90;8.10;;;19.60;29.30;;;;;;5019930;28;20405;-67
2022/03/09 12:26:51;;;;;;;8.37;7.67;;;19.30;28.20;;;;;;5019678;28;20500;-68
2022/03/09 12:29:28;;;;;;;8.80;8.10;;;19.30;29.70;;;;;;5004202;28;20932;-68
2022/03/09 12:32:12;;;;;;;9.50;8.60;;;19.30;29.20;;;;;;5021055;28;20429;-68
2022/03/09 12:34:49;;;;;;;10.50;8.43;;;19.50;30.00;;;;;;5021540;28;20427;-75
2022/03/09 12:37:17;;;;;;;8.40;7.67;;;19.60;30.10;;;;;;5003882;28;20909;-68
2022/03/09 12:39:58;;;;;;;8.70;7.90;;;19.60;29.40;;;;;;5019451;28;20414;-69
2022/03/09 12:42:24;;;;;;;8.63;7.80;;;19.70;29.50;;;;;;5018908;28;20414;-68
2022/03/09 12:44:50;;;;;;;8.60;7.97;;;19.70;29.20;;;;;;5021804;28;20512;-68
2022/03/09 12:47:18;;;;;;;8.60;7.87;;;19.70;29.60;;;;;;5018432;28;20413;-68